sensor_id;sensor_type;location;lat;lon;timestamp;P1;durP1;ratioP1;P2;durP2;ratioP2
47009;SDS011;59230;54.164;-3.124;2022-09-02T00:01:00;8.43;;;2.30;;
47009;SDS011;59230;54.164;-3.124;2022-09-02T00:03:32;12.23;;;1.70;;
47009;SDS011;59230;54.164;-3.124;2022-09-02T00:06:02;7.53;;;2.30;;
47009;SDS011;59230;54.164;-3.124;2022-09-02T00:08:28;6.82;;;2.10;;
47009;SDS011;59230;54.164;-3.124;2022-09-02T00:10:56;12.25;;;2.25;;
47009;SDS011;59230;54.164;-3.124;2022-09-02T00:13:22;8.20;;;2.13;;
47009;SDS011;59230;54.164;-3.124;2022-09-02T00:15:48;9.60;;;2.85;;
47009;SDS011;59230;54.164;-3.124;2022-09-02T00:18:14;8.20;;;2.47;;
47009;SDS011;59230;54.164;-3.124;2022-09-02T00:20:41;7.60;;;2.25;;
47009;SDS011;59230;54.164;-3.124;2022-09-02T00:23:08;7.85;;;2.20;;
47009;SDS011;59230;54.164;-3.124;2022-09-02T00:25:34;6.78;;;1.90;;
47009;SDS011;59230;54.164;-3.124;2022-09-02T00:28:00;10.65;;;2.30;;
47009;SDS011;59230;54.164;-3.124;2022-09-02T00:30:26;6.10;;;2.08;;
47009;SDS011;59230;54.164;-3.124;2022-09-02T00:32:52;7.97;;;2.03;;
47009;SDS011;59230;54.164;-3.124;2022-09-02T00:35:18;8.52;;;2.20;;
47009;SDS011;59230;54.164;-3.124;2022-09-02T00:37:43;6.88;;;2.20;;
47009;SDS011;59230;54.164;-3.124;2022-09-02T00:40:09;4.70;;;2.10;;
47009;SDS011;59230;54.164;-3.124;2022-09-02T00:42:35;7.88;;;2.13;;
47009;SDS011;59230;54.164;-3.124;2022-09-02T00:45:03;8.35;;;2.10;;
47009;SDS011;59230;54.164;-3.124;2022-09-02T00:47:31;9.48;;;2.40;;
47009;SDS011;59230;54.164;-3.124;2022-09-02T00:49:57;10.95;;;2.05;;
47009;SDS011;59230;54.164;-3.124;2022-09-02T00:55:14;7.85;;;2.25;;
47009;SDS011;59230;54.164;-3.124;2022-09-02T00:57:48;5.03;;;1.90;;
47009;SDS011;59230;54.164;-3.124;2022-09-02T01:00:21;4.68;;;2.00;;
47009;SDS011;59230;54.164;-3.124;2022-09-02T01:02:53;9.10;;;2.28;;
47009;SDS011;59230;54.164;-3.124;2022-09-02T01:05:22;6.20;;;1.97;;
47009;SDS011;59230;54.164;-3.124;2022-09-02T01:07:49;9.18;;;2.20;;
47009;SDS011;59230;54.164;-3.124;2022-09-02T01:10:17;6.95;;;1.85;;
47009;SDS011;59230;54.164;-3.124;2022-09-02T01:12:45;11.25;;;2.38;;
47009;SDS011;59230;54.164;-3.124;2022-09-02T01:15:11;8.88;;;2.55;;
47009;SDS011;59230;54.164;-3.124;2022-09-02T01:17:40;8.13;;;3.00;;
47009;SDS011;59230;54.164;-3.124;2022-09-02T01:20:09;9.98;;;2.30;;
47009;SDS011;59230;54.164;-3.124;2022-09-02T01:22:37;8.18;;;2.25;;
47009;SDS011;59230;54.164;-3.124;2022-09-02T01:25:05;6.15;;;2.28;;
47009;SDS011;59230;54.164;-3.124;2022-09-02T01:27:33;5.28;;;1.98;;
47009;SDS011;59230;54.164;-3.124;2022-09-02T01:29:59;4.65;;;2.03;;
47009;SDS011;59230;54.164;-3.124;2022-09-02T01:32:26;6.97;;;2.25;;
47009;SDS011;59230;54.164;-3.124;2022-09-02T01:34:52;4.95;;;2.50;;
47009;SDS011;59230;54.164;-3.124;2022-09-02T01:37:18;6.18;;;2.55;;
47009;SDS011;59230;54.164;-3.124;2022-09-02T01:39:44;13.05;;;2.55;;
47009;SDS011;59230;54.164;-3.124;2022-09-02T01:42:10;13.02;;;2.05;;
47009;SDS011;59230;54.164;-3.124;2022-09-02T01:44:36;7.55;;;1.90;;
47009;SDS011;59230;54.164;-3.124;2022-09-02T01:47:08;7.25;;;2.03;;
47009;SDS011;59230;54.164;-3.124;2022-09-02T01:49:34;7.38;;;2.30;;
47009;SDS011;59230;54.164;-3.124;2022-09-02T01:52:00;10.23;;;2.10;;
47009;SDS011;59230;54.164;-3.124;2022-09-02T01:54:25;11.23;;;2.20;;
47009;SDS011;59230;54.164;-3.124;2022-09-02T01:56:51;4.30;;;2.20;;
47009;SDS011;59230;54.164;-3.124;2022-09-02T01:59:16;8.93;;;2.85;;
47009;SDS011;59230;54.164;-3.124;2022-09-02T02:01:43;14.70;;;2.63;;
47009;SDS011;59230;54.164;-3.124;2022-09-02T02:04:09;8.00;;;2.38;;
47009;SDS011;59230;54.164;-3.124;2022-09-02T02:06:38;8.63;;;2.20;;
47009;SDS011;59230;54.164;-3.124;2022-09-02T02:09:05;6.53;;;2.22;;
47009;SDS011;59230;54.164;-3.124;2022-09-02T02:11:30;9.10;;;2.47;;
47009;SDS011;59230;54.164;-3.124;2022-09-02T02:13:56;9.25;;;2.00;;
47009;SDS011;59230;54.164;-3.124;2022-09-02T02:16:21;6.57;;;2.20;;
47009;SDS011;59230;54.164;-3.124;2022-09-02T02:18:46;11.90;;;2.08;;
47009;SDS011;59230;54.164;-3.124;2022-09-02T02:21:12;7.00;;;2.00;;
47009;SDS011;59230;54.164;-3.124;2022-09-02T02:23:38;6.80;;;1.90;;
47009;SDS011;59230;54.164;-3.124;2022-09-02T02:26:03;4.82;;;1.90;;
47009;SDS011;59230;54.164;-3.124;2022-09-02T02:28:29;5.70;;;2.08;;
47009;SDS011;59230;54.164;-3.124;2022-09-02T02:30:55;5.13;;;1.98;;
47009;SDS011;59230;54.164;-3.124;2022-09-02T02:33:20;7.28;;;2.50;;
47009;SDS011;59230;54.164;-3.124;2022-09-02T02:35:45;6.55;;;2.20;;
47009;SDS011;59230;54.164;-3.124;2022-09-02T02:38:11;7.53;;;2.10;;
47009;SDS011;59230;54.164;-3.124;2022-09-02T02:40:37;9.50;;;2.35;;
47009;SDS011;59230;54.164;-3.124;2022-09-02T02:43:02;6.03;;;2.08;;
47009;SDS011;59230;54.164;-3.124;2022-09-02T02:45:28;4.43;;;1.98;;
47009;SDS011;59230;54.164;-3.124;2022-09-02T02:47:53;6.07;;;2.08;;
47009;SDS011;59230;54.164;-3.124;2022-09-02T02:50:20;7.50;;;2.20;;
47009;SDS011;59230;54.164;-3.124;2022-09-02T02:52:46;12.98;;;2.33;;
47009;SDS011;59230;54.164;-3.124;2022-09-02T02:55:13;8.00;;;2.35;;
47009;SDS011;59230;54.164;-3.124;2022-09-02T02:57:39;8.90;;;2.10;;
47009;SDS011;59230;54.164;-3.124;2022-09-02T03:02:40;4.45;;;1.67;;
47009;SDS011;59230;54.164;-3.124;2022-09-02T03:05:07;6.25;;;2.08;;
47009;SDS011;59230;54.164;-3.124;2022-09-02T03:07:34;11.15;;;2.50;;
47009;SDS011;59230;54.164;-3.124;2022-09-02T03:09:59;5.72;;;1.77;;
47009;SDS011;59230;54.164;-3.124;2022-09-02T03:12:24;7.80;;;2.28;;
47009;SDS011;59230;54.164;-3.124;2022-09-02T03:14:50;5.00;;;2.10;;
47009;SDS011;59230;54.164;-3.124;2022-09-02T03:17:17;12.73;;;2.28;;
47009;SDS011;59230;54.164;-3.124;2022-09-02T03:19:42;16.55;;;2.42;;
47009;SDS011;59230;54.164;-3.124;2022-09-02T03:22:08;10.48;;;2.10;;
47009;SDS011;59230;54.164;-3.124;2022-09-02T03:24:36;6.55;;;1.92;;
47009;SDS011;59230;54.164;-3.124;2022-09-02T03:27:02;5.43;;;1.60;;
47009;SDS011;59230;54.164;-3.124;2022-09-02T03:29:28;6.68;;;1.77;;
47009;SDS011;59230;54.164;-3.124;2022-09-02T03:31:54;6.10;;;2.00;;
47009;SDS011;59230;54.164;-3.124;2022-09-02T03:34:19;7.22;;;1.98;;
47009;SDS011;59230;54.164;-3.124;2022-09-02T03:36:45;5.53;;;1.85;;
47009;SDS011;59230;54.164;-3.124;2022-09-02T03:39:11;6.10;;;1.95;;
47009;SDS011;59230;54.164;-3.124;2022-09-02T03:41:36;7.45;;;2.28;;
47009;SDS011;59230;54.164;-3.124;2022-09-02T03:44:05;5.45;;;1.80;;
47009;SDS011;59230;54.164;-3.124;2022-09-02T03:46:31;6.60;;;2.25;;
47009;SDS011;59230;54.164;-3.124;2022-09-02T03:48:56;5.30;;;1.90;;
47009;SDS011;59230;54.164;-3.124;2022-09-02T03:51:22;6.97;;;2.15;;
47009;SDS011;59230;54.164;-3.124;2022-09-02T03:53:49;13.45;;;2.17;;
47009;SDS011;59230;54.164;-3.124;2022-09-02T03:56:15;5.18;;;1.95;;
47009;SDS011;59230;54.164;-3.124;2022-09-02T03:58:45;5.10;;;2.33;;
47009;SDS011;59230;54.164;-3.124;2022-09-02T04:01:16;7.43;;;2.17;;
47009;SDS011;59230;54.164;-3.124;2022-09-02T04:03:44;6.30;;;1.92;;
47009;SDS011;59230;54.164;-3.124;2022-09-02T04:06:11;13.43;;;2.45;;
47009;SDS011;59230;54.164;-3.124;2022-09-02T04:08:38;9.05;;;2.40;;
47009;SDS011;59230;54.164;-3.124;2022-09-02T04:11:05;6.80;;;2.45;;
47009;SDS011;59230;54.164;-3.124;2022-09-02T04:13:35;10.68;;;2.30;;
47009;SDS011;59230;54.164;-3.124;2022-09-02T04:16:04;4.63;;;2.10;;
47009;SDS011;59230;54.164;-3.124;2022-09-02T04:18:33;11.77;;;2.55;;
47009;SDS011;59230;54.164;-3.124;2022-09-02T04:20:59;7.38;;;2.03;;
47009;SDS011;59230;54.164;-3.124;2022-09-02T04:23:25;6.10;;;2.13;;
47009;SDS011;59230;54.164;-3.124;2022-09-02T04:25:52;9.60;;;2.42;;
47009;SDS011;59230;54.164;-3.124;2022-09-02T04:28:17;6.95;;;2.08;;
47009;SDS011;59230;54.164;-3.124;2022-09-02T04:30:42;4.97;;;2.13;;
47009;SDS011;59230;54.164;-3.124;2022-09-02T04:33:09;5.32;;;2.20;;
47009;SDS011;59230;54.164;-3.124;2022-09-02T04:35:38;8.10;;;2.17;;
47009;SDS011;59230;54.164;-3.124;2022-09-02T04:38:07;5.45;;;2.15;;
47009;SDS011;59230;54.164;-3.124;2022-09-02T04:40:33;4.82;;;2.35;;
47009;SDS011;59230;54.164;-3.124;2022-09-02T04:42:59;8.55;;;2.35;;
47009;SDS011;59230;54.164;-3.124;2022-09-02T04:45:24;5.07;;;2.05;;
47009;SDS011;59230;54.164;-3.124;2022-09-02T04:47:50;4.47;;;1.88;;
47009;SDS011;59230;54.164;-3.124;2022-09-02T04:50:16;6.45;;;1.77;;
47009;SDS011;59230;54.164;-3.124;2022-09-02T04:52:42;6.65;;;1.98;;
47009;SDS011;59230;54.164;-3.124;2022-09-02T04:55:08;5.93;;;2.08;;
47009;SDS011;59230;54.164;-3.124;2022-09-02T04:57:34;7.75;;;1.90;;
47009;SDS011;59230;54.164;-3.124;2022-09-02T05:00:01;9.75;;;2.17;;
47009;SDS011;59230;54.164;-3.124;2022-09-02T05:02:28;10.45;;;1.98;;
47009;SDS011;59230;54.164;-3.124;2022-09-02T05:04:54;6.07;;;1.63;;
47009;SDS011;59230;54.164;-3.124;2022-09-02T05:07:19;6.80;;;2.40;;
47009;SDS011;59230;54.164;-3.124;2022-09-02T05:09:45;7.03;;;2.00;;
47009;SDS011;59230;54.164;-3.124;2022-09-02T05:12:10;7.53;;;2.45;;
47009;SDS011;59230;54.164;-3.124;2022-09-02T05:14:36;4.25;;;2.30;;
47009;SDS011;59230;54.164;-3.124;2022-09-02T05:17:01;7.18;;;2.30;;
47009;SDS011;59230;54.164;-3.124;2022-09-02T05:19:28;6.35;;;2.40;;
47009;SDS011;59230;54.164;-3.124;2022-09-02T05:21:55;9.57;;;2.33;;
47009;SDS011;59230;54.164;-3.124;2022-09-02T05:24:23;4.32;;;2.25;;
47009;SDS011;59230;54.164;-3.124;2022-09-02T05:26:49;6.70;;;2.30;;
47009;SDS011;59230;54.164;-3.124;2022-09-02T05:29:15;9.88;;;2.30;;
47009;SDS011;59230;54.164;-3.124;2022-09-02T05:31:43;5.18;;;2.05;;
47009;SDS011;59230;54.164;-3.124;2022-09-02T05:34:08;5.90;;;2.35;;
47009;SDS011;59230;54.164;-3.124;2022-09-02T05:36:34;7.45;;;2.20;;
47009;SDS011;59230;54.164;-3.124;2022-09-02T05:39:00;4.50;;;2.08;;
47009;SDS011;59230;54.164;-3.124;2022-09-02T05:41:25;9.88;;;2.40;;
47009;SDS011;59230;54.164;-3.124;2022-09-02T05:43:52;9.93;;;2.20;;
47009;SDS011;59230;54.164;-3.124;2022-09-02T05:46:20;6.20;;;2.30;;
47009;SDS011;59230;54.164;-3.124;2022-09-02T05:48:47;4.60;;;2.00;;
47009;SDS011;59230;54.164;-3.124;2022-09-02T05:54:03;6.15;;;2.40;;
47009;SDS011;59230;54.164;-3.124;2022-09-02T05:56:29;10.27;;;2.47;;
47009;SDS011;59230;54.164;-3.124;2022-09-02T05:58:55;3.55;;;2.05;;
47009;SDS011;59230;54.164;-3.124;2022-09-02T06:01:21;5.00;;;2.63;;
47009;SDS011;59230;54.164;-3.124;2022-09-02T06:03:47;8.75;;;2.30;;
47009;SDS011;59230;54.164;-3.124;2022-09-02T06:06:12;9.10;;;2.45;;
47009;SDS011;59230;54.164;-3.124;2022-09-02T06:08:38;5.50;;;2.20;;
47009;SDS011;59230;54.164;-3.124;2022-09-02T06:11:06;9.35;;;2.97;;
47009;SDS011;59230;54.164;-3.124;2022-09-02T06:13:35;4.97;;;2.30;;
47009;SDS011;59230;54.164;-3.124;2022-09-02T06:16:02;9.25;;;2.40;;
47009;SDS011;59230;54.164;-3.124;2022-09-02T06:18:28;5.30;;;2.40;;
47009;SDS011;59230;54.164;-3.124;2022-09-02T06:20:54;6.18;;;2.72;;
47009;SDS011;59230;54.164;-3.124;2022-09-02T06:23:19;3.58;;;2.03;;
47009;SDS011;59230;54.164;-3.124;2022-09-02T06:25:45;4.43;;;2.08;;
47009;SDS011;59230;54.164;-3.124;2022-09-02T06:28:12;2.97;;;2.00;;
47009;SDS011;59230;54.164;-3.124;2022-09-02T06:30:39;5.80;;;2.35;;
47009;SDS011;59230;54.164;-3.124;2022-09-02T06:33:05;5.10;;;2.38;;
47009;SDS011;59230;54.164;-3.124;2022-09-02T06:35:35;9.05;;;2.30;;
47009;SDS011;59230;54.164;-3.124;2022-09-02T06:38:02;4.53;;;2.15;;
47009;SDS011;59230;54.164;-3.124;2022-09-02T06:40:27;4.60;;;2.30;;
47009;SDS011;59230;54.164;-3.124;2022-09-02T06:42:53;5.18;;;2.22;;
47009;SDS011;59230;54.164;-3.124;2022-09-02T06:45:19;4.95;;;2.42;;
47009;SDS011;59230;54.164;-3.124;2022-09-02T06:47:45;5.57;;;2.20;;
47009;SDS011;59230;54.164;-3.124;2022-09-02T06:50:10;5.50;;;2.30;;
47009;SDS011;59230;54.164;-3.124;2022-09-02T06:52:37;6.25;;;2.22;;
47009;SDS011;59230;54.164;-3.124;2022-09-02T06:55:03;4.20;;;2.10;;
47009;SDS011;59230;54.164;-3.124;2022-09-02T06:57:29;5.85;;;2.50;;
47009;SDS011;59230;54.164;-3.124;2022-09-02T06:59:55;5.65;;;2.20;;
47009;SDS011;59230;54.164;-3.124;2022-09-02T07:02:20;5.88;;;2.47;;
47009;SDS011;59230;54.164;-3.124;2022-09-02T07:04:46;4.60;;;2.15;;
47009;SDS011;59230;54.164;-3.124;2022-09-02T07:07:30;5.43;;;2.33;;
47009;SDS011;59230;54.164;-3.124;2022-09-02T07:09:55;7.20;;;2.17;;
47009;SDS011;59230;54.164;-3.124;2022-09-02T07:12:21;6.25;;;2.58;;
47009;SDS011;59230;54.164;-3.124;2022-09-02T07:14:46;5.50;;;2.22;;
47009;SDS011;59230;54.164;-3.124;2022-09-02T07:17:13;6.97;;;1.88;;
47009;SDS011;59230;54.164;-3.124;2022-09-02T07:19:46;5.35;;;1.98;;
47009;SDS011;59230;54.164;-3.124;2022-09-02T07:22:12;7.45;;;2.17;;
47009;SDS011;59230;54.164;-3.124;2022-09-02T07:24:39;11.35;;;2.10;;
47009;SDS011;59230;54.164;-3.124;2022-09-02T07:27:05;5.95;;;2.20;;
47009;SDS011;59230;54.164;-3.124;2022-09-02T07:29:31;7.47;;;2.15;;
47009;SDS011;59230;54.164;-3.124;2022-09-02T07:31:58;6.00;;;1.95;;
47009;SDS011;59230;54.164;-3.124;2022-09-02T07:34:23;8.95;;;2.58;;
47009;SDS011;59230;54.164;-3.124;2022-09-02T07:36:49;7.97;;;1.90;;
47009;SDS011;59230;54.164;-3.124;2022-09-02T07:39:16;6.95;;;2.20;;
47009;SDS011;59230;54.164;-3.124;2022-09-02T07:41:44;4.38;;;2.30;;
47009;SDS011;59230;54.164;-3.124;2022-09-02T07:44:12;5.28;;;2.08;;
47009;SDS011;59230;54.164;-3.124;2022-09-02T07:46:38;7.35;;;2.00;;
47009;SDS011;59230;54.164;-3.124;2022-09-02T07:49:04;3.08;;;1.90;;
47009;SDS011;59230;54.164;-3.124;2022-09-02T07:51:32;6.10;;;2.03;;
47009;SDS011;59230;54.164;-3.124;2022-09-02T07:53:59;6.00;;;2.17;;
47009;SDS011;59230;54.164;-3.124;2022-09-02T07:56:25;6.40;;;2.22;;
47009;SDS011;59230;54.164;-3.124;2022-09-02T07:58:50;15.80;;;7.47;;
47009;SDS011;59230;54.164;-3.124;2022-09-02T08:01:17;46.22;;;10.18;;
47009;SDS011;59230;54.164;-3.124;2022-09-02T08:03:43;41.47;;;9.15;;
47009;SDS011;59230;54.164;-3.124;2022-09-02T08:06:09;48.25;;;10.70;;
47009;SDS011;59230;54.164;-3.124;2022-09-02T08:08:36;15.50;;;4.57;;
47009;SDS011;59230;54.164;-3.124;2022-09-02T08:11:01;27.10;;;8.40;;
47009;SDS011;59230;54.164;-3.124;2022-09-02T08:13:28;34.38;;;9.18;;
47009;SDS011;59230;54.164;-3.124;2022-09-02T08:15:53;14.65;;;5.35;;
47009;SDS011;59230;54.164;-3.124;2022-09-02T08:18:19;35.03;;;8.73;;
47009;SDS011;59230;54.164;-3.124;2022-09-02T08:20:45;76.85;;;18.45;;
47009;SDS011;59230;54.164;-3.124;2022-09-02T08:23:11;128.68;;;36.55;;
47009;SDS011;59230;54.164;-3.124;2022-09-02T08:25:37;45.17;;;13.13;;
47009;SDS011;59230;54.164;-3.124;2022-09-02T08:28:03;13.05;;;4.75;;
47009;SDS011;59230;54.164;-3.124;2022-09-02T08:30:29;33.25;;;9.10;;
47009;SDS011;59230;54.164;-3.124;2022-09-02T08:32:55;29.92;;;8.40;;
47009;SDS011;59230;54.164;-3.124;2022-09-02T08:35:20;48.85;;;13.73;;
47009;SDS011;59230;54.164;-3.124;2022-09-02T08:37:46;144.88;;;35.03;;
47009;SDS011;59230;54.164;-3.124;2022-09-02T08:40:16;66.70;;;18.98;;
47009;SDS011;59230;54.164;-3.124;2022-09-02T08:50:32;41.97;;;13.27;;
47009;SDS011;59230;54.164;-3.124;2022-09-02T08:53:05;42.17;;;15.13;;
47009;SDS011;59230;54.164;-3.124;2022-09-02T08:55:55;44.45;;;15.90;;
47009;SDS011;59230;54.164;-3.124;2022-09-02T08:58:31;36.90;;;16.00;;
47009;SDS011;59230;54.164;-3.124;2022-09-02T09:01:09;40.40;;;18.83;;
47009;SDS011;59230;54.164;-3.124;2022-09-02T09:12:26;70.05;;;30.83;;
47009;SDS011;59230;54.164;-3.124;2022-09-02T09:15:12;61.67;;;28.63;;
47009;SDS011;59230;54.164;-3.124;2022-09-02T09:17:47;15.10;;;7.78;;
47009;SDS011;59230;54.164;-3.124;2022-09-02T09:20:27;41.55;;;17.65;;
47009;SDS011;59230;54.164;-3.124;2022-09-02T09:22:55;30.00;;;12.50;;
47009;SDS011;59230;54.164;-3.124;2022-09-02T09:25:22;8.23;;;2.95;;
47009;SDS011;59230;54.164;-3.124;2022-09-02T09:27:57;7.07;;;2.00;;
47009;SDS011;59230;54.164;-3.124;2022-09-02T09:30:23;5.97;;;2.15;;
47009;SDS011;59230;54.164;-3.124;2022-09-02T09:32:50;6.45;;;2.00;;
47009;SDS011;59230;54.164;-3.124;2022-09-02T09:35:19;5.93;;;1.80;;
47009;SDS011;59230;54.164;-3.124;2022-09-02T09:37:49;4.28;;;1.80;;
47009;SDS011;59230;54.164;-3.124;2022-09-02T09:45:31;9.52;;;2.00;;
47009;SDS011;59230;54.164;-3.124;2022-09-02T09:56:03;9.32;;;1.88;;
47009;SDS011;59230;54.164;-3.124;2022-09-02T10:01:18;5.47;;;1.55;;
47009;SDS011;59230;54.164;-3.124;2022-09-02T10:04:01;3.63;;;1.38;;
47009;SDS011;59230;54.164;-3.124;2022-09-02T10:08:57;3.83;;;1.50;;
47009;SDS011;59230;54.164;-3.124;2022-09-02T10:11:31;2.60;;;1.60;;
47009;SDS011;59230;54.164;-3.124;2022-09-02T10:13:58;5.75;;;1.65;;
47009;SDS011;59230;54.164;-3.124;2022-09-02T10:16:32;4.53;;;1.70;;
47009;SDS011;59230;54.164;-3.124;2022-09-02T10:21:49;5.80;;;1.50;;
47009;SDS011;59230;54.164;-3.124;2022-09-02T10:27:09;4.15;;;1.60;;
47009;SDS011;59230;54.164;-3.124;2022-09-02T10:29:50;3.95;;;1.60;;
47009;SDS011;59230;54.164;-3.124;2022-09-02T10:48:27;3.88;;;1.60;;
47009;SDS011;59230;54.164;-3.124;2022-09-02T10:56:26;6.22;;;1.45;;
47009;SDS011;59230;54.164;-3.124;2022-09-02T10:59:01;4.75;;;1.52;;
47009;SDS011;59230;54.164;-3.124;2022-09-02T11:04:33;10.23;;;1.63;;
47009;SDS011;59230;54.164;-3.124;2022-09-02T11:07:01;2.40;;;1.23;;
47009;SDS011;59230;54.164;-3.124;2022-09-02T11:09:31;6.63;;;1.65;;
47009;SDS011;59230;54.164;-3.124;2022-09-02T11:12:06;6.47;;;1.98;;
47009;SDS011;59230;54.164;-3.124;2022-09-02T11:17:43;8.40;;;1.30;;
47009;SDS011;59230;54.164;-3.124;2022-09-02T11:20:25;3.03;;;1.38;;
47009;SDS011;59230;54.164;-3.124;2022-09-02T11:36:43;5.10;;;1.70;;
47009;SDS011;59230;54.164;-3.124;2022-09-02T11:49:54;7.68;;;2.08;;
47009;SDS011;59230;54.164;-3.124;2022-09-02T11:55:42;2.85;;;1.30;;
47009;SDS011;59230;54.164;-3.124;2022-09-02T12:03:25;7.85;;;1.67;;
47009;SDS011;59230;54.164;-3.124;2022-09-02T12:06:12;5.47;;;1.40;;
47009;SDS011;59230;54.164;-3.124;2022-09-02T12:11:06;3.28;;;1.45;;
47009;SDS011;59230;54.164;-3.124;2022-09-02T12:13:33;6.93;;;1.33;;
47009;SDS011;59230;54.164;-3.124;2022-09-02T12:21:23;4.70;;;1.42;;
47009;SDS011;59230;54.164;-3.124;2022-09-02T12:26:16;3.60;;;1.40;;
47009;SDS011;59230;54.164;-3.124;2022-09-02T12:28:43;3.83;;;1.65;;
47009;SDS011;59230;54.164;-3.124;2022-09-02T12:33:49;2.72;;;1.50;;
47009;SDS011;59230;54.164;-3.124;2022-09-02T12:41:47;5.18;;;1.40;;
47009;SDS011;59230;54.164;-3.124;2022-09-02T12:52:43;4.55;;;1.33;;
47009;SDS011;59230;54.164;-3.124;2022-09-02T12:57:46;4.45;;;1.27;;
47009;SDS011;59230;54.164;-3.124;2022-09-02T13:00:32;4.90;;;1.25;;
47009;SDS011;59230;54.164;-3.124;2022-09-02T13:32:43;2.95;;;1.02;;
47009;SDS011;59230;54.164;-3.124;2022-09-02T13:35:19;6.25;;;1.55;;
47009;SDS011;59230;54.164;-3.124;2022-09-02T13:37:58;3.78;;;1.52;;
47009;SDS011;59230;54.164;-3.124;2022-09-02T13:40:28;10.70;;;1.38;;
47009;SDS011;59230;54.164;-3.124;2022-09-02T13:42:55;4.97;;;1.20;;
47009;SDS011;59230;54.164;-3.124;2022-09-02T13:45:42;3.65;;;1.20;;
47009;SDS011;59230;54.164;-3.124;2022-09-02T13:48:18;3.35;;;1.25;;
47009;SDS011;59230;54.164;-3.124;2022-09-02T13:50:45;2.22;;;1.20;;
47009;SDS011;59230;54.164;-3.124;2022-09-02T13:53:22;4.22;;;1.25;;
47009;SDS011;59230;54.164;-3.124;2022-09-02T13:55:49;3.70;;;1.30;;
47009;SDS011;59230;54.164;-3.124;2022-09-02T13:58:30;2.30;;;1.10;;
47009;SDS011;59230;54.164;-3.124;2022-09-02T14:04:02;7.60;;;1.40;;
47009;SDS011;59230;54.164;-3.124;2022-09-02T14:06:33;3.78;;;1.13;;
47009;SDS011;59230;54.164;-3.124;2022-09-02T14:09:02;2.63;;;1.30;;
47009;SDS011;59230;54.164;-3.124;2022-09-02T14:11:40;5.78;;;1.35;;
47009;SDS011;59230;54.164;-3.124;2022-09-02T14:14:07;3.20;;;1.27;;
47009;SDS011;59230;54.164;-3.124;2022-09-02T14:16:34;3.45;;;1.63;;
47009;SDS011;59230;54.164;-3.124;2022-09-02T14:21:35;3.42;;;1.42;;
47009;SDS011;59230;54.164;-3.124;2022-09-02T14:24:01;7.25;;;1.40;;
47009;SDS011;59230;54.164;-3.124;2022-09-02T14:26:32;4.57;;;1.40;;
47009;SDS011;59230;54.164;-3.124;2022-09-02T14:29:00;2.70;;;1.30;;
47009;SDS011;59230;54.164;-3.124;2022-09-02T14:31:27;3.05;;;1.30;;
47009;SDS011;59230;54.164;-3.124;2022-09-02T14:33:57;6.68;;;1.60;;
47009;SDS011;59230;54.164;-3.124;2022-09-02T14:41:18;3.53;;;1.38;;
47009;SDS011;59230;54.164;-3.124;2022-09-02T14:43:52;2.97;;;1.40;;
47009;SDS011;59230;54.164;-3.124;2022-09-02T14:46:26;8.52;;;1.63;;
47009;SDS011;59230;54.164;-3.124;2022-09-02T14:48:55;5.00;;;1.35;;
47009;SDS011;59230;54.164;-3.124;2022-09-02T14:51:21;4.78;;;1.75;;
47009;SDS011;59230;54.164;-3.124;2022-09-02T14:53:47;5.90;;;1.60;;
47009;SDS011;59230;54.164;-3.124;2022-09-02T14:56:12;5.10;;;1.40;;
47009;SDS011;59230;54.164;-3.124;2022-09-02T14:58:38;5.93;;;1.60;;
47009;SDS011;59230;54.164;-3.124;2022-09-02T15:01:03;4.53;;;1.50;;
47009;SDS011;59230;54.164;-3.124;2022-09-02T15:03:35;5.97;;;1.73;;
47009;SDS011;59230;54.164;-3.124;2022-09-02T15:06:01;3.55;;;1.60;;
47009;SDS011;59230;54.164;-3.124;2022-09-02T15:08:27;6.63;;;1.42;;
47009;SDS011;59230;54.164;-3.124;2022-09-02T15:10:52;6.28;;;1.77;;
47009;SDS011;59230;54.164;-3.124;2022-09-02T15:13:51;3.88;;;1.50;;
47009;SDS011;59230;54.164;-3.124;2022-09-02T15:16:10;6.68;;;1.30;;
47009;SDS011;59230;54.164;-3.124;2022-09-02T15:18:36;9.35;;;1.50;;
47009;SDS011;59230;54.164;-3.124;2022-09-02T15:21:01;10.38;;;1.75;;
47009;SDS011;59230;54.164;-3.124;2022-09-02T15:23:27;4.88;;;1.70;;
47009;SDS011;59230;54.164;-3.124;2022-09-02T15:25:53;6.00;;;1.40;;
47009;SDS011;59230;54.164;-3.124;2022-09-02T15:28:19;2.20;;;1.30;;
47009;SDS011;59230;54.164;-3.124;2022-09-02T15:30:44;4.43;;;1.50;;
47009;SDS011;59230;54.164;-3.124;2022-09-02T15:33:10;8.85;;;1.88;;
47009;SDS011;59230;54.164;-3.124;2022-09-02T15:35:35;6.15;;;1.42;;
47009;SDS011;59230;54.164;-3.124;2022-09-02T15:38:01;13.65;;;1.58;;
47009;SDS011;59230;54.164;-3.124;2022-09-02T15:40:27;4.35;;;1.40;;
47009;SDS011;59230;54.164;-3.124;2022-09-02T15:42:53;4.75;;;1.48;;
47009;SDS011;59230;54.164;-3.124;2022-09-02T15:45:20;3.28;;;1.58;;
47009;SDS011;59230;54.164;-3.124;2022-09-02T15:47:46;4.82;;;1.50;;
47009;SDS011;59230;54.164;-3.124;2022-09-02T15:50:11;3.40;;;1.23;;
47009;SDS011;59230;54.164;-3.124;2022-09-02T15:52:37;6.43;;;1.40;;
47009;SDS011;59230;54.164;-3.124;2022-09-02T15:55:03;5.78;;;1.55;;
47009;SDS011;59230;54.164;-3.124;2022-09-02T15:57:29;5.05;;;1.40;;
47009;SDS011;59230;54.164;-3.124;2022-09-02T15:59:54;8.00;;;1.60;;
47009;SDS011;59230;54.164;-3.124;2022-09-02T16:02:20;3.53;;;1.50;;
47009;SDS011;59230;54.164;-3.124;2022-09-02T16:07:17;11.85;;;2.38;;
47009;SDS011;59230;54.164;-3.124;2022-09-02T16:09:42;6.82;;;1.80;;
47009;SDS011;59230;54.164;-3.124;2022-09-02T16:12:09;9.30;;;1.80;;
47009;SDS011;59230;54.164;-3.124;2022-09-02T16:14:35;4.50;;;1.50;;
47009;SDS011;59230;54.164;-3.124;2022-09-02T16:17:00;5.45;;;1.70;;
47009;SDS011;59230;54.164;-3.124;2022-09-02T16:19:26;16.48;;;2.30;;
47009;SDS011;59230;54.164;-3.124;2022-09-02T16:21:53;8.85;;;1.98;;
47009;SDS011;59230;54.164;-3.124;2022-09-02T16:24:18;6.18;;;1.80;;
47009;SDS011;59230;54.164;-3.124;2022-09-02T16:26:45;5.05;;;2.65;;
47009;SDS011;59230;54.164;-3.124;2022-09-02T16:29:12;7.95;;;1.60;;
47009;SDS011;59230;54.164;-3.124;2022-09-02T16:31:39;6.60;;;2.05;;
47009;SDS011;59230;54.164;-3.124;2022-09-02T16:34:09;6.57;;;1.80;;
47009;SDS011;59230;54.164;-3.124;2022-09-02T16:36:37;5.80;;;1.90;;
47009;SDS011;59230;54.164;-3.124;2022-09-02T16:39:04;6.85;;;2.13;;
47009;SDS011;59230;54.164;-3.124;2022-09-02T16:41:41;7.82;;;2.33;;
47009;SDS011;59230;54.164;-3.124;2022-09-02T16:44:10;5.65;;;1.85;;
47009;SDS011;59230;54.164;-3.124;2022-09-02T16:46:36;8.02;;;2.03;;
47009;SDS011;59230;54.164;-3.124;2022-09-02T16:49:04;4.18;;;1.95;;
47009;SDS011;59230;54.164;-3.124;2022-09-02T16:51:30;7.25;;;1.92;;
47009;SDS011;59230;54.164;-3.124;2022-09-02T16:53:58;5.15;;;2.03;;
47009;SDS011;59230;54.164;-3.124;2022-09-02T16:56:25;6.97;;;1.85;;
47009;SDS011;59230;54.164;-3.124;2022-09-02T16:58:52;4.38;;;1.90;;
47009;SDS011;59230;54.164;-3.124;2022-09-02T17:01:18;8.00;;;2.25;;
47009;SDS011;59230;54.164;-3.124;2022-09-02T17:03:45;4.00;;;2.13;;
47009;SDS011;59230;54.164;-3.124;2022-09-02T17:06:11;14.85;;;2.22;;
47009;SDS011;59230;54.164;-3.124;2022-09-02T17:08:37;9.00;;;2.25;;
47009;SDS011;59230;54.164;-3.124;2022-09-02T17:16:22;6.85;;;2.17;;
47009;SDS011;59230;54.164;-3.124;2022-09-02T17:18:49;6.65;;;2.08;;
47009;SDS011;59230;54.164;-3.124;2022-09-02T17:21:19;10.90;;;2.50;;
47009;SDS011;59230;54.164;-3.124;2022-09-02T17:23:47;5.57;;;2.30;;
47009;SDS011;59230;54.164;-3.124;2022-09-02T17:26:13;5.93;;;2.03;;
47009;SDS011;59230;54.164;-3.124;2022-09-02T17:28:39;7.43;;;2.22;;
47009;SDS011;59230;54.164;-3.124;2022-09-02T17:31:18;7.85;;;2.25;;
47009;SDS011;59230;54.164;-3.124;2022-09-02T17:33:49;6.75;;;2.55;;
47009;SDS011;59230;54.164;-3.124;2022-09-02T17:36:15;3.30;;;2.15;;
47009;SDS011;59230;54.164;-3.124;2022-09-02T17:38:41;5.60;;;2.30;;
47009;SDS011;59230;54.164;-3.124;2022-09-02T17:41:06;5.88;;;2.55;;